Time,TemperatureF,DewpointF,PressureIn,WindDirection,WindDirectionDegrees,WindSpeedMPH,WindSpeedGustMPH,Humidity,HourlyPrecipIn,Conditions,Clouds,dailyrainin,SoftwareType,DateUTC
2013-03-23 00:22:00,38.0,-7.0,29.86,SW,220,2.0,2.0,14,0.00,,,-99.99,,2013-03-23 07:22:00,
2013-03-23 00:32:00,38.0,-7.0,29.86,SW,220,2.0,2.0,14,0.00,,,-99.99,,2013-03-23 07:32:00,
2013-03-23 01:22:00,40.0,-4.0,29.85,SW,230,1.0,2.0,15,0.00,,,-99.99,,2013-03-23 08:22:00,
2013-03-23 01:32:00,40.0,-4.0,29.85,SW,230,1.0,2.0,15,0.00,,,-99.99,,2013-03-23 08:32:00,
2013-03-23 02:22:00,38.0,-1.0,29.89,WSW,240,1.0,2.0,19,0.00,,,-99.99,,2013-03-23 09:22:00,
2013-03-23 02:32:00,38.0,-1.0,29.89,WSW,240,1.0,2.0,19,0.00,,,-99.99,,2013-03-23 09:32:00,
2013-03-23 09:23:00,46.0,1.0,29.95,NE,40,1.0,3.0,15,0.00,,,-99.99,,2013-03-23 16:23:00,
2013-03-23 09:32:00,46.0,1.0,29.95,NE,40,1.0,3.0,15,0.00,,,-99.99,,2013-03-23 16:32:00,
2013-03-23 09:42:00,46.0,1.0,29.95,NE,40,1.0,3.0,15,0.00,,,-99.99,,2013-03-23 16:42:00,
2013-03-23 10:22:00,50.0,4.0,29.96,NNE,30,2.0,4.0,15,0.00,,,-99.99,,2013-03-23 17:22:00,
2013-03-23 10:32:00,50.0,4.0,29.96,NNE,30,2.0,4.0,15,0.00,,,-99.99,,2013-03-23 17:32:00,
2013-03-23 10:42:00,50.0,4.0,29.96,NNE,30,2.0,4.0,15,0.00,,,-99.99,,2013-03-23 17:42:00,
2013-03-23 11:22:00,52.0,11.0,29.96,NNE,20,1.0,7.0,19,0.00,,,-99.99,,2013-03-23 18:22:00,
2013-03-23 11:32:00,52.0,11.0,29.96,NNE,20,1.0,7.0,19,0.00,,,-99.99,,2013-03-23 18:32:00,
2013-03-23 11:42:00,52.0,11.0,29.96,NNE,20,1.0,7.0,19,0.00,,,-99.99,,2013-03-23 18:42:00,
2013-03-23 12:22:00,52.0,11.0,29.94,NNE,30,1.0,-999.0,19,0.00,,,-99.99,,2013-03-23 19:22:00,
2013-03-23 12:32:00,52.0,11.0,29.94,NNE,30,1.0,-999.0,19,0.00,,,-99.99,,2013-03-23 19:32:00,
2013-03-23 12:42:00,52.0,11.0,29.94,NNE,30,1.0,-999.0,19,0.00,,,-99.99,,2013-03-23 19:42:00,
2013-03-23 13:22:00,51.0,8.0,29.94,NNE,30,4.0,-999.0,17,0.00,,,-99.99,,2013-03-23 20:22:00,
2013-03-23 13:32:00,51.0,8.0,29.94,NNE,30,4.0,-999.0,17,0.00,,,-99.99,,2013-03-23 20:32:00,
2013-03-23 13:42:00,51.0,8.0,29.94,NNE,30,4.0,-999.0,17,0.00,,,-99.99,,2013-03-23 20:42:00,
2013-03-23 14:22:00,52.0,4.0,29.94,NNE,30,5.0,-999.0,14,0.00,,,-99.99,,2013-03-23 21:22:00,
2013-03-23 14:32:00,52.0,4.0,29.94,NNE,30,5.0,-999.0,14,0.00,,,-99.99,,2013-03-23 21:32:00,
2013-03-23 14:43:00,52.0,4.0,29.94,NNE,30,5.0,-999.0,14,0.00,,,-99.99,,2013-03-23 21:43:00,
2013-03-23 15:23:00,56.0,13.0,29.93,WSW,240,1.0,7.0,18,0.00,,,-99.99,,2013-03-23 22:23:00,
2013-03-23 15:32:00,56.0,13.0,29.93,WSW,240,1.0,7.0,18,0.00,,,-99.99,,2013-03-23 22:32:00,
2013-03-23 15:42:00,56.0,13.0,29.93,WSW,240,1.0,7.0,18,0.00,,,-99.99,,2013-03-23 22:42:00,
2013-03-23 16:22:00,54.0,14.0,29.91,NW,320,2.0,11.0,20,0.00,,,-99.99,,2013-03-23 23:22:00,
2013-03-23 16:32:00,54.0,14.0,29.91,NW,320,2.0,11.0,20,0.00,,,-99.99,,2013-03-23 23:32:00,
2013-03-23 16:42:00,54.0,14.0,29.91,NW,320,2.0,11.0,20,0.00,,,-99.99,,2013-03-23 23:42:00,
2013-03-23 17:22:00,53.0,16.0,29.91,West,260,5.0,7.0,23,0.00,,,-99.99,,2013-03-24 00:22:00,
2013-03-23 17:32:00,53.0,16.0,29.91,West,260,5.0,7.0,23,0.00,,,-99.99,,2013-03-24 00:32:00,
2013-03-23 17:42:00,53.0,16.0,29.91,West,260,5.0,7.0,23,0.00,,,-99.99,,2013-03-24 00:42:00,
2013-03-23 18:22:00,50.0,16.0,29.92,WSW,240,7.0,8.0,26,0.00,,,-99.99,,2013-03-24 01:22:00,
2013-03-23 18:32:00,50.0,16.0,29.92,WSW,240,7.0,8.0,26,0.00,,,-99.99,,2013-03-24 01:32:00,
2013-03-23 18:42:00,50.0,16.0,29.92,WSW,240,7.0,8.0,26,0.00,,,-99.99,,2013-03-24 01:42:00,
2013-03-23 19:22:00,46.0,21.0,29.92,SW,230,1.0,5.0,37,0.00,,,-99.99,,2013-03-24 02:22:00,
2013-03-23 19:32:00,46.0,21.0,29.92,SW,230,1.0,5.0,37,0.00,,,-99.99,,2013-03-24 02:32:00,
2013-03-23 19:42:00,46.0,21.0,29.92,SW,230,1.0,5.0,37,0.00,,,-99.99,,2013-03-24 02:42:00,
2013-03-23 20:22:00,43.0,24.0,29.92,West,270,2.0,6.0,46,0.00,,,-99.99,,2013-03-24 03:22:00,
2013-03-23 20:33:00,43.0,24.0,29.92,West,270,2.0,6.0,46,0.00,,,-99.99,,2013-03-24 03:33:00,
2013-03-23 20:42:00,43.0,24.0,29.92,West,270,2.0,6.0,46,0.00,,,-99.99,,2013-03-24 03:42:00,
2013-03-23 21:22:00,43.0,22.0,29.93,SW,220,2.0,6.0,43,0.00,,,-99.99,,2013-03-24 04:22:00,
2013-03-23 21:32:00,43.0,22.0,29.93,SW,220,2.0,6.0,43,0.00,,,-99.99,,2013-03-24 04:32:00,
2013-03-23 21:42:00,43.0,22.0,29.93,SW,220,2.0,6.0,43,0.00,,,-99.99,,2013-03-24 04:42:00,
2013-03-23 22:22:00,43.0,21.0,29.95,West,260,1.0,8.0,41,0.00,,,-99.99,,2013-03-24 05:22:00,
2013-03-23 22:32:00,43.0,21.0,29.95,West,260,1.0,8.0,41,0.00,,,-99.99,,2013-03-24 05:32:00,
2013-03-23 22:42:00,43.0,21.0,29.95,West,260,1.0,8.0,41,0.00,,,-99.99,,2013-03-24 05:42:00,
2013-03-23 23:22:00,42.0,23.0,29.96,West,260,1.0,6.0,46,0.00,,,-99.99,,2013-03-24 06:22:00,
2013-03-23 23:32:00,42.0,23.0,29.96,West,260,1.0,6.0,46,0.00,,,-99.99,,2013-03-24 06:32:00,
2013-03-23 23:42:00,42.0,23.0,29.96,West,260,1.0,6.0,46,0.00,,,-99.99,,2013-03-24 06:42:00,